createdAt,value
2022-09-06T00:01:27.235Z,45.79
2022-09-06T00:03:54.135Z,46.26
2022-09-06T00:06:21.033Z,46.93
2022-09-06T00:08:49.208Z,46.36
2022-09-06T00:11:16.979Z,46.08
2022-09-06T00:13:44.118Z,46.69
2022-09-06T00:16:13.790Z,47.13
2022-09-06T00:18:40.640Z,47.60
2022-09-06T00:21:19.627Z,48.13
2022-09-06T00:23:46.537Z,48.13
2022-09-06T00:26:13.964Z,48.88
2022-09-06T00:29:26.853Z,49.53
2022-09-06T00:32:02.807Z,49.10
2022-09-06T00:34:29.479Z,50.11
2022-09-06T00:36:56.172Z,49.48
2022-09-06T00:39:22.940Z,49.54
2022-09-06T00:41:49.838Z,50.66
2022-09-06T00:44:16.750Z,50.42
2022-09-06T00:47:06.671Z,49.60
2022-09-06T00:49:42.405Z,49.35
2022-09-06T00:52:13.075Z,50.72
2022-09-06T00:54:40.489Z,49.98
2022-09-06T00:57:07.770Z,49.72
2022-09-06T00:59:39.827Z,49.71
2022-09-06T01:02:53.543Z,49.86
2022-09-06T01:06:03.431Z,51.97
2022-09-06T01:08:51.402Z,50.65
2022-09-06T01:11:30.484Z,50.32
2022-09-06T01:14:09.322Z,51.45
2022-09-06T01:16:57.561Z,52.26
2022-09-06T01:19:55.234Z,51.31
2022-09-06T01:23:06.497Z,52.69
2022-09-06T01:25:48.710Z,53.91
2022-09-06T01:28:27.661Z,52.36
2022-09-06T01:31:05.263Z,51.66
2022-09-06T01:33:38.046Z,51.28
2022-09-06T01:40:19.880Z,52.21
2022-09-06T01:42:48.333Z,51.62
2022-09-06T01:45:19.139Z,51.37
2022-09-06T01:47:48.661Z,51.34
2022-09-06T01:50:34.846Z,50.80
2022-09-06T01:53:26.468Z,50.65
2022-09-06T01:56:33.867Z,51.02
2022-09-06T01:59:00.403Z,51.21
2022-09-06T02:01:49.647Z,51.55
2022-09-06T02:04:41.507Z,52.00
2022-09-06T02:07:26.067Z,52.50
2022-09-06T02:17:05.881Z,51.34
2022-09-06T02:19:49.302Z,51.39
2022-09-06T02:22:20.917Z,51.60
2022-09-06T02:24:51.326Z,51.28
2022-09-06T02:27:18.234Z,51.26
2022-09-06T02:30:09.937Z,51.25
2022-09-06T02:33:00.437Z,51.27
2022-09-06T02:35:27.682Z,51.50
2022-09-06T02:37:56.001Z,51.75
2022-09-06T02:40:23.086Z,52.30
2022-09-06T02:42:49.756Z,53.22
2022-09-06T02:51:48.340Z,53.72
2022-09-06T02:54:17.200Z,54.88
2022-09-06T02:56:43.822Z,54.63
2022-09-06T02:59:10.467Z,55.35
2022-09-06T03:01:37.190Z,56.29
2022-09-06T03:04:28.354Z,56.18
2022-09-06T03:06:56.359Z,55.22
2022-09-06T03:09:23.041Z,55.17
2022-09-06T03:11:49.670Z,55.00
2022-09-06T03:14:17.195Z,55.00
2022-09-06T03:16:43.907Z,54.08
2022-09-06T03:19:10.557Z,53.52
2022-09-06T03:26:47.650Z,51.99
2022-09-06T03:29:14.344Z,51.62
2022-09-06T03:31:40.968Z,51.26
2022-09-06T03:34:10.894Z,50.74
2022-09-06T03:36:38.312Z,50.42
2022-09-06T03:39:23.515Z,50.00
2022-09-06T03:41:50.252Z,50.11
2022-09-06T03:44:16.876Z,49.98
2022-09-06T03:46:43.543Z,49.55
2022-09-06T03:49:10.390Z,49.64
2022-09-06T03:51:39.633Z,49.76
2022-09-06T03:54:46.862Z,49.25
2022-09-06T03:58:16.514Z,49.19
2022-09-06T04:00:43.242Z,49.34
2022-09-06T04:03:10.063Z,49.25
2022-09-06T04:05:36.784Z,49.02
2022-09-06T04:08:03.937Z,48.50
2022-09-06T04:10:30.606Z,48.87
2022-09-06T04:15:37.982Z,48.75
2022-09-06T04:18:09.000Z,48.40
2022-09-06T04:20:35.927Z,47.79
2022-09-06T04:23:02.588Z,48.02
2022-09-06T04:25:29.185Z,48.09
2022-09-06T04:27:55.813Z,48.53
2022-09-06T04:33:35.924Z,49.66
2022-09-06T04:36:04.916Z,48.97
2022-09-06T04:38:44.144Z,48.87
2022-09-06T04:41:12.937Z,49.83
2022-09-06T04:43:39.606Z,50.16
2022-09-06T04:46:18.059Z,49.93
2022-09-06T04:48:58.096Z,50.88
2022-09-06T04:51:25.770Z,50.39
2022-09-06T04:53:52.858Z,51.22
2022-09-06T04:56:22.145Z,51.93
2022-09-06T04:58:50.249Z,51.51
2022-09-06T05:01:16.946Z,52.90
2022-09-06T05:04:30.441Z,52.63
2022-09-06T05:10:14.012Z,52.89
2022-09-06T05:12:44.115Z,52.63
2022-09-06T05:15:11.436Z,52.38
2022-09-06T05:17:38.053Z,53.14
2022-09-06T05:20:05.142Z,52.35
2022-09-06T05:22:31.742Z,51.72
2022-09-06T05:24:58.320Z,51.62
2022-09-06T05:27:25.140Z,50.87
2022-09-06T05:29:51.812Z,50.30
2022-09-06T05:32:18.413Z,51.06
2022-09-06T05:34:45.159Z,50.41
2022-09-06T05:37:11.866Z,49.41
2022-09-06T05:39:38.495Z,49.63
2022-09-06T05:42:06.931Z,48.58
2022-09-06T05:44:37.543Z,48.07
2022-09-06T05:47:04.760Z,47.62
2022-09-06T05:49:32.264Z,47.61
2022-09-06T05:51:59.068Z,46.89
2022-09-06T05:54:45.487Z,47.08
2022-09-06T05:57:12.151Z,47.12
2022-09-06T05:59:38.794Z,47.21
2022-09-06T06:02:07.468Z,46.09
2022-09-06T06:04:34.565Z,46.76
2022-09-06T06:07:01.778Z,46.41
2022-09-06T06:13:36.914Z,44.89
2022-09-06T06:16:03.895Z,44.27
2022-09-06T06:18:30.580Z,44.82
2022-09-06T06:21:17.583Z,44.07
2022-09-06T06:23:45.805Z,44.26
2022-09-06T06:26:13.900Z,43.15
2022-09-06T06:29:01.934Z,42.85
2022-09-06T06:31:30.448Z,42.75
2022-09-06T06:33:58.324Z,42.35
2022-09-06T06:36:30.775Z,42.46
2022-09-06T06:38:58.763Z,42.37
2022-09-06T06:41:28.814Z,42.16
2022-09-06T06:48:05.208Z,41.23
2022-09-06T06:50:31.867Z,41.36
2022-09-06T06:52:59.742Z,41.53
2022-09-06T06:55:26.406Z,41.54
2022-09-06T06:57:53.804Z,40.87
2022-09-06T07:00:23.099Z,40.86
2022-09-06T07:03:13.750Z,40.98
2022-09-06T07:08:30.037Z,40.28
2022-09-06T07:10:56.720Z,40.26
2022-09-06T07:13:23.354Z,41.32
2022-09-06T07:15:50.209Z,40.86
2022-09-06T07:22:04.639Z,40.43
2022-09-06T07:24:32.569Z,40.97
2022-09-06T07:29:48.413Z,40.90
2022-09-06T07:32:15.027Z,40.16
2022-09-06T07:34:41.745Z,39.65
2022-09-06T07:37:29.904Z,39.59
2022-09-06T07:39:56.599Z,39.71
2022-09-06T07:42:25.124Z,39.32
2022-09-06T07:44:51.753Z,38.69
2022-09-06T07:56:48.292Z,38.71
2022-09-06T07:59:15.287Z,38.78
2022-09-06T08:01:42.267Z,38.06
2022-09-06T08:04:12.818Z,38.76
2022-09-06T08:09:36.014Z,37.87
2022-09-06T08:12:21.378Z,37.72
2022-09-06T08:14:47.976Z,37.43
2022-09-06T08:17:14.617Z,37.38
2022-09-06T08:19:41.318Z,37.50
2022-09-06T08:22:08.082Z,37.22
2022-09-06T08:24:35.845Z,37.39
2022-09-06T08:31:03.424Z,38.32
2022-09-06T08:33:30.075Z,36.60
2022-09-06T08:36:01.145Z,38.05
2022-09-06T08:38:28.965Z,37.01
2022-09-06T08:41:07.933Z,37.02
2022-09-06T08:43:34.905Z,37.25
2022-09-06T08:46:29.984Z,36.48
2022-09-06T08:48:56.798Z,37.09
2022-09-06T08:51:58.943Z,39.53
2022-09-06T08:54:37.669Z,38.92
2022-09-06T08:57:30.412Z,38.87
2022-09-06T09:00:02.163Z,38.48
2022-09-06T09:06:35.298Z,36.35
2022-09-06T09:09:06.489Z,36.40
2022-09-06T09:11:36.026Z,36.08
2022-09-06T09:14:16.086Z,36.03
2022-09-06T09:16:43.368Z,35.90
2022-09-06T09:19:10.154Z,35.67
2022-09-06T09:21:40.158Z,36.40
2022-09-06T09:24:09.702Z,36.01
2022-09-06T09:27:01.047Z,36.12
2022-09-06T09:35:33.910Z,36.24
2022-09-06T09:43:42.597Z,36.11
2022-09-06T09:46:24.489Z,35.38
2022-09-06T09:49:11.938Z,35.65
2022-09-06T09:51:44.602Z,35.38
2022-09-06T09:54:32.319Z,35.39
2022-09-06T09:56:59.379Z,35.50
2022-09-06T09:59:44.971Z,34.87
2022-09-06T10:02:40.506Z,34.94
2022-09-06T10:05:07.202Z,36.43
2022-09-06T10:07:34.800Z,36.28
2022-09-06T10:10:06.272Z,37.71
2022-09-06T10:12:35.836Z,36.15
2022-09-06T10:15:06.875Z,36.09
2022-09-06T10:18:08.157Z,36.15
2022-09-06T10:26:38.594Z,36.60
2022-09-06T10:29:06.997Z,36.11
2022-09-06T10:31:47.521Z,35.77
2022-09-06T10:34:53.273Z,35.54
2022-09-06T10:37:25.561Z,36.01
2022-09-06T10:40:08.185Z,36.15
2022-09-06T10:43:01.506Z,35.93
2022-09-06T10:45:30.991Z,35.71
2022-09-06T10:48:14.777Z,35.92
2022-09-06T10:51:21.233Z,34.52
2022-09-06T11:02:02.960Z,36.15
2022-09-06T11:07:30.415Z,36.20
2022-09-06T11:10:05.174Z,36.98
2022-09-06T11:12:50.608Z,35.43
2022-09-06T11:15:19.332Z,35.91
2022-09-06T11:17:56.885Z,36.03
2022-09-06T11:20:33.536Z,35.53
2022-09-06T11:23:27.945Z,34.96
2022-09-06T11:26:15.925Z,34.37
2022-09-06T11:29:00.392Z,35.42
2022-09-06T11:34:35.483Z,34.82
2022-09-06T11:37:07.759Z,36.02
2022-09-06T11:43:01.094Z,35.34
2022-09-06T11:45:45.899Z,33.28
2022-09-06T11:48:26.315Z,33.79
2022-09-06T11:51:12.438Z,33.51
2022-09-06T11:53:51.243Z,35.11
2022-09-06T11:56:29.691Z,35.51
2022-09-06T11:59:03.983Z,35.47
2022-09-06T12:01:30.593Z,33.68
2022-09-06T12:04:05.577Z,33.88
2022-09-06T12:10:15.438Z,33.71
2022-09-06T12:12:50.035Z,33.47
2022-09-06T12:15:45.516Z,33.09
2022-09-06T12:18:47.039Z,32.28
2022-09-06T12:21:47.428Z,32.84
2022-09-06T12:24:46.250Z,32.81
2022-09-06T12:27:18.653Z,32.66
2022-09-06T12:29:55.055Z,32.16
2022-09-06T12:32:36.092Z,31.97
2022-09-06T12:38:04.815Z,33.71
2022-09-06T12:40:40.848Z,33.35
2022-09-06T12:43:11.520Z,33.15
2022-09-06T12:45:44.634Z,33.28
2022-09-06T12:48:25.328Z,32.05
2022-09-06T12:51:16.166Z,32.08
2022-09-06T12:54:04.175Z,31.89
2022-09-06T12:56:34.147Z,32.93
2022-09-06T12:59:17.024Z,33.09
2022-09-06T13:01:50.573Z,32.68
2022-09-06T13:04:37.565Z,33.11
2022-09-06T13:07:05.482Z,32.54
2022-09-06T13:09:33.466Z,32.83
2022-09-06T13:12:33.638Z,32.34
2022-09-06T13:15:31.244Z,33.41
2022-09-06T13:18:37.168Z,32.71
2022-09-06T13:21:08.067Z,32.79
2022-09-06T13:24:04.074Z,32.56
2022-09-06T13:26:39.325Z,32.56
2022-09-06T13:29:25.474Z,33.58
2022-09-06T13:31:54.557Z,33.61
2022-09-06T13:34:21.074Z,33.66
2022-09-06T13:36:55.805Z,33.14
2022-09-06T13:39:38.186Z,33.14
2022-09-06T13:42:10.707Z,33.22
2022-09-06T13:44:39.265Z,33.45
2022-09-06T13:47:06.568Z,33.76
2022-09-06T13:49:35.835Z,33.76
2022-09-06T13:52:04.471Z,33.21
2022-09-06T13:54:32.438Z,33.22
2022-09-06T13:56:59.066Z,33.65
2022-09-06T13:59:25.660Z,33.72
2022-09-06T14:02:05.567Z,33.76
2022-09-06T14:04:35.213Z,34.49
2022-09-06T14:07:01.895Z,33.64
2022-09-06T14:09:29.504Z,33.35
2022-09-06T14:11:56.324Z,33.98
2022-09-06T14:14:23.044Z,34.45
2022-09-06T14:16:49.881Z,33.98
2022-09-06T14:19:16.966Z,34.71
2022-09-06T14:21:43.829Z,34.48
2022-09-06T14:24:10.601Z,33.68
2022-09-06T14:26:38.653Z,34.67
2022-09-06T14:29:05.523Z,34.49
2022-09-06T14:31:35.390Z,34.43
2022-09-06T14:34:02.502Z,34.35
2022-09-06T14:36:31.197Z,35.12
2022-09-06T14:39:01.969Z,34.72
2022-09-06T14:41:28.870Z,35.25
2022-09-06T14:43:57.732Z,34.72
2022-09-06T14:46:25.864Z,35.43
2022-09-06T14:49:01.641Z,34.95
2022-09-06T14:51:30.213Z,34.73
2022-09-06T14:54:00.004Z,35.37
2022-09-06T14:56:27.242Z,35.14
2022-09-06T14:58:57.475Z,35.23
2022-09-06T15:01:34.157Z,35.26
2022-09-06T15:04:06.166Z,34.91
2022-09-06T15:06:34.803Z,34.68
2022-09-06T15:09:01.484Z,34.74
2022-09-06T15:11:34.658Z,34.92
2022-09-06T15:14:07.884Z,35.35
2022-09-06T15:16:35.971Z,36.34
2022-09-06T15:19:02.869Z,38.83
2022-09-06T15:21:30.695Z,40.29
2022-09-06T15:23:57.868Z,41.17
2022-09-06T15:26:25.255Z,41.02
2022-09-06T15:28:52.232Z,41.13
2022-09-06T15:31:19.688Z,41.26
2022-09-06T15:33:48.962Z,41.45
2022-09-06T15:36:16.532Z,44.47
2022-09-06T15:38:47.445Z,51.44
2022-09-06T15:41:17.024Z,52.26
2022-09-06T15:43:47.136Z,52.65
2022-09-06T15:46:15.932Z,51.82
2022-09-06T15:48:48.482Z,51.69
2022-09-06T15:51:19.494Z,52.96
2022-09-06T15:53:46.418Z,54.22
2022-09-06T15:56:18.997Z,55.42
2022-09-06T15:58:52.397Z,57.52
2022-09-06T16:09:59.350Z,62.10
2022-09-06T18:35:33.286Z,61.38
2022-09-06T18:38:06.084Z,61.59
2022-09-06T19:11:14.132Z,62.16
2022-09-06T19:13:41.919Z,62.17
2022-09-06T20:20:56.304Z,62.22
2022-09-06T20:23:23.166Z,62.30
2022-09-06T20:26:00.790Z,61.90
2022-09-06T20:28:28.091Z,62.27
2022-09-06T20:31:00.222Z,62.45
2022-09-06T20:33:27.179Z,61.79
2022-09-06T20:35:58.661Z,61.39
2022-09-06T20:38:26.550Z,61.83
2022-09-06T20:41:06.758Z,61.79
2022-09-06T20:43:36.681Z,63.23
2022-09-06T20:46:08.935Z,62.71
2022-09-06T20:48:44.166Z,62.26
2022-09-06T20:51:19.035Z,62.09
2022-09-06T20:53:48.729Z,62.20
2022-09-06T20:56:19.217Z,61.70
2022-09-06T20:58:57.434Z,61.66
2022-09-06T21:01:28.248Z,61.68
2022-09-06T21:03:57.247Z,61.96
2022-09-06T21:06:25.554Z,63.26
2022-09-06T21:08:52.902Z,62.47
2022-09-06T21:11:20.229Z,62.37
2022-09-06T21:13:52.511Z,62.15
2022-09-06T21:16:24.956Z,62.17
2022-09-06T21:19:00.372Z,63.54
2022-09-06T21:21:29.195Z,63.37
2022-09-06T21:23:56.187Z,62.67
2022-09-06T21:26:39.313Z,62.41
2022-09-06T21:29:05.988Z,62.25
2022-09-06T21:31:36.179Z,62.50
2022-09-06T21:34:11.449Z,63.68
2022-09-06T21:36:40.882Z,64.06
2022-09-06T21:39:10.700Z,64.01
2022-09-06T21:45:44.298Z,63.09
2022-09-06T21:48:10.925Z,63.49
2022-09-06T21:50:37.566Z,63.25
2022-09-06T21:53:04.242Z,64.73
2022-09-06T21:55:32.919Z,64.07
2022-09-06T21:57:59.560Z,64.18
2022-09-06T22:00:55.715Z,65.11
2022-09-06T22:03:23.018Z,64.82
2022-09-06T22:05:50.222Z,64.74
2022-09-06T22:08:17.792Z,64.08
2022-09-06T22:10:44.645Z,63.59
2022-09-06T22:13:11.546Z,63.26
2022-09-06T22:20:21.899Z,65.93
2022-09-06T22:22:49.562Z,64.24
2022-09-06T22:25:16.782Z,63.46
2022-09-06T22:27:43.448Z,64.90
2022-09-06T22:30:10.642Z,64.75
2022-09-06T22:32:37.324Z,64.06
2022-09-06T22:35:05.994Z,64.44
2022-09-06T22:37:36.618Z,63.54
2022-09-06T22:40:04.319Z,62.79
2022-09-06T22:42:31.133Z,62.40
2022-09-06T22:44:57.745Z,62.79
2022-09-06T22:47:25.458Z,62.43
2022-09-06T22:49:52.180Z,63.90
2022-09-06T22:52:46.737Z,64.78
2022-09-06T22:55:13.370Z,64.31
2022-09-06T22:57:40.441Z,63.68
2022-09-06T23:00:07.950Z,63.56
2022-09-06T23:02:34.609Z,63.71
2022-09-06T23:05:01.316Z,63.70
2022-09-06T23:08:05.638Z,63.83
2022-09-06T23:11:03.986Z,63.87
2022-09-06T23:13:30.934Z,63.47
2022-09-06T23:16:06.637Z,63.11
2022-09-06T23:18:33.909Z,63.12
2022-09-06T23:21:09.028Z,63.81
2022-09-06T23:23:36.825Z,64.44
2022-09-06T23:26:28.817Z,64.30
2022-09-06T23:28:58.695Z,64.65
2022-09-06T23:31:27.145Z,65.04
2022-09-06T23:33:58.216Z,65.39
2022-09-06T23:36:25.242Z,64.69
2022-09-06T23:38:52.357Z,64.92
2022-09-06T23:45:11.668Z,63.55
2022-09-06T23:47:38.340Z,63.49
2022-09-06T23:50:05.395Z,64.07
2022-09-06T23:52:32.039Z,66.06
2022-09-06T23:54:58.646Z,64.65
2022-09-06T23:57:25.597Z,64.47
2022-09-06T23:59:52.231Z,65.23
